Time;durP1;ratioP1;P1;durP2;ratioP2;P2;SDS_P1;SDS_P2;PMS_P1;PMS_P2;Temp;Humidity;BMP_temperature;BMP_pressure;BME280_temperature;BME280_humidity;BME280_pressure;Samples;Min_cycle;Max_cycle;Signal;HPM_P1;HPM_P2
2021/03/27 00:01:43;;;;;;;90.58;72.28;;;;;;;8.27;65.99;100610.60;121584;1158;24770;-76
2021/03/27 00:04:18;;;;;;;92.08;72.23;;;;;;;8.23;66.42;100614.48;122067;1152;22562;-76
2021/03/27 00:07:13;;;;;;;88.25;69.70;;;;;;;8.22;66.30;100611.02;122378;1152;22548;-76
2021/03/27 00:09:57;;;;;;;90.85;73.75;;;;;;;8.19;66.26;100610.48;122414;1152;22549;-77
2021/03/27 00:12:37;;;;;;;98.73;77.75;;;;;;;8.19;66.24;100611.31;122182;1154;22540;-76
2021/03/27 00:15:40;;;;;;;91.20;71.73;;;;;;;8.17;66.40;100602.75;122301;1152;24436;-77
2021/03/27 00:18:11;;;;;;;85.20;69.33;;;;;;;8.14;66.16;100610.94;122385;1155;22631;-76
2021/03/27 00:20:56;;;;;;;88.35;71.85;;;;;;;8.11;66.23;100603.33;122412;1152;22625;-75
2021/03/27 00:23:33;;;;;;;95.58;74.50;;;;;;;8.08;66.30;100605.42;122172;1152;22678;-75
2021/03/27 00:26:22;;;;;;;94.57;74.67;;;;;;;8.07;66.46;100599.34;121974;1157;22549;-76
2021/03/27 00:29:22;;;;;;;87.58;70.40;;;;;;;8.06;66.46;100594.20;121644;1155;24081;-76
2021/03/27 00:32:09;;;;;;;83.80;69.13;;;;;;;8.02;66.80;100594.49;121709;1155;22609;-76
2021/03/27 00:34:45;;;;;;;88.75;71.65;;;;;;;8.01;66.39;100592.84;121686;1154;24531;-76
2021/03/27 00:37:26;;;;;;;88.63;71.87;;;;;;;8.01;66.52;100584.95;121645;1155;23294;-76
2021/03/27 00:40:21;;;;;;;83.53;67.10;;;;;;;8.04;66.51;100580.39;121713;1158;22562;-76
2021/03/27 00:43:06;;;;;;;84.18;69.45;;;;;;;8.01;66.55;100577.06;121607;1157;22554;-76
2021/03/27 00:45:43;;;;;;;88.28;70.83;;;;;;;8.00;66.36;100571.95;122180;1152;22547;-78
2021/03/27 00:48:32;;;;;;;80.83;68.68;;;;;;;7.98;66.58;100572.09;122207;1154;22540;-77
2021/03/27 00:51:11;;;;;;;88.75;71.80;;;;;;;7.97;66.82;100572.25;122256;1152;24423;-76
2021/03/27 00:53:59;;;;;;;79.95;65.55;;;;;;;7.96;66.90;100568.80;122127;1152;22544;-76
2021/03/27 00:57:18;;;;;;;82.17;67.38;;;;;;;7.96;67.04;100563.53;122124;1152;22542;-76
2021/03/27 01:00:15;;;;;;;81.43;66.65;;;;;;;7.94;67.07;100567.27;122026;1155;22534;-76
2021/03/27 01:03:30;;;;;;;77.25;64.23;;;;;;;7.95;66.87;100561.85;121510;1158;22559;-76
2021/03/27 01:06:27;;;;;;;79.70;63.68;;;;;;;7.95;67.50;100556.59;121474;1158;22857;-76
2021/03/27 01:09:13;;;;;;;88.05;71.83;;;;;;;7.97;67.12;100557.28;121586;1158;22648;-76
2021/03/27 01:12:21;;;;;;;86.98;71.40;;;;;;;7.97;66.87;100554.66;121542;1158;23572;-76
2021/03/27 01:14:57;;;;;;;85.28;68.75;;;;;;;7.95;67.02;100553.14;121537;1159;25202;-76
2021/03/27 01:17:30;;;;;;;82.33;67.33;;;;;;;7.97;67.19;100554.66;121661;1155;24476;-75
2021/03/27 01:20:14;;;;;;;79.53;65.85;;;;;;;8.00;67.08;100551.73;122067;1155;22572;-76
2021/03/27 01:22:45;;;;;;;79.25;67.20;;;;;;;8.02;67.26;100547.14;122064;1153;22561;-75
2021/03/27 01:25:20;;;;;;;77.25;65.95;;;;;;;8.04;67.08;100548.81;122185;1152;22661;-75
2021/03/27 01:28:02;;;;;;;75.58;66.80;;;;;;;8.06;67.27;100538.95;122215;1154;24707;-75
2021/03/27 01:30:48;;;;;;;81.53;68.80;;;;;;;8.06;67.10;100534.52;122107;1152;22908;-75
2021/03/27 01:33:25;;;;;;;82.60;68.28;;;;;;;8.08;67.21;100534.38;122095;1152;25159;-76
2021/03/27 01:36:12;;;;;;;82.08;67.80;;;;;;;8.10;67.29;100533.27;122203;1152;22528;-75
2021/03/27 01:39:35;;;;;;;78.55;66.35;;;;;;;8.12;67.42;100535.73;122379;1151;22737;-75
2021/03/27 01:42:16;;;;;;;76.80;65.58;;;;;;;8.12;67.38;100533.11;121617;1155;23486;-75
2021/03/27 01:45:23;;;;;;;77.13;65.60;;;;;;;8.14;67.40;100524.09;121654;1158;22601;-76
2021/03/27 01:48:32;;;;;;;79.93;68.53;;;;;;;8.16;67.21;100516.89;121491;1158;24840;-75
2021/03/27 01:51:32;;;;;;;86.63;70.63;;;;;;;8.19;67.43;100518.38;121055;1161;25205;-76
2021/03/27 01:55:30;;;;;;;75.90;63.73;;;;;;;8.21;67.62;100514.63;121158;1161;22606;-76
2021/03/27 01:58:26;;;;;;;84.80;69.70;;;;;;;8.21;67.26;100511.17;120719;1164;22594;-76
2021/03/27 02:01:09;;;;;;;85.20;67.87;;;;;;;8.24;67.43;100508.25;120639;1164;22711;-75
2021/03/27 02:03:59;;;;;;;78.75;66.65;;;;;;;8.24;67.37;100505.63;120885;1164;25250;-75
2021/03/27 02:06:41;;;;;;;88.30;69.60;;;;;;;8.27;67.19;100500.06;120588;1164;22625;-76
2021/03/27 02:10:10;;;;;;;70.97;61.63;;;;;;;8.27;67.14;100505.33;120657;1167;22703;-76
2021/03/27 02:12:52;;;;;;;84.40;71.90;;;;;;;8.26;67.44;100498.38;120695;1164;24444;-75
2021/03/27 02:15:56;;;;;;;69.90;60.90;;;;;;;8.27;67.30;100500.06;120845;1168;22606;-75
2021/03/27 02:19:04;;;;;;;73.30;60.93;;;;;;;8.25;67.11;100492.30;120693;1164;22676;-75
2021/03/27 02:21:56;;;;;;;72.30;62.60;;;;;;;8.26;67.13;100490.48;120841;1164;22635;-76
2021/03/27 02:24:33;;;;;;;73.30;60.20;;;;;;;8.24;67.22;100492.46;120555;1168;22705;-75
2021/03/27 02:27:30;;;;;;;70.90;60.18;;;;;;;8.24;67.09;100493.28;120644;1166;24748;-76
2021/03/27 02:30:06;;;;;;;71.77;59.33;;;;;;;8.23;67.07;100496.05;120869;1164;23629;-76
2021/03/27 02:32:54;;;;;;;74.68;62.33;;;;;;;8.27;67.37;100496.61;120884;1161;22656;-76
2021/03/27 02:35:55;;;;;;;67.30;58.55;;;;;;;8.27;66.96;100492.16;121130;1161;22595;-75
2021/03/27 02:39:15;;;;;;;66.20;57.55;;;;;;;8.27;66.91;100493.97;121503;1158;22727;-76
2021/03/27 02:41:54;;;;;;;68.33;59.35;;;;;;;8.25;66.94;100494.92;121559;1155;22634;-77
2021/03/27 02:44:35;;;;;;;67.75;57.43;;;;;;;8.25;66.87;100484.41;121619;1155;22707;-75
2021/03/27 02:47:38;;;;;;;68.00;57.57;;;;;;;8.25;66.75;100484.41;121649;1155;22648;-75
2021/03/27 02:50:33;;;;;;;71.53;57.95;;;;;;;8.23;66.86;100490.78;122345;1152;23765;-76
2021/03/27 02:53:44;;;;;;;74.15;59.00;;;;;;;8.23;66.80;100485.52;122119;1151;22550;-76
2021/03/27 02:56:30;;;;;;;72.57;59.17;;;;;;;8.20;66.77;100478.77;122206;1152;22526;-76
2021/03/27 02:59:48;;;;;;;77.53;63.88;;;;;;;8.20;66.58;100486.67;122275;1155;24744;-76
2021/03/27 03:02:44;;;;;;;71.23;60.03;;;;;;;8.19;66.57;100486.80;122433;1152;22544;-75
2021/03/27 03:05:33;;;;;;;71.68;57.28;;;;;;;8.18;66.52;100482.52;122304;1155;24683;-79
2021/03/27 03:08:23;;;;;;;77.05;63.75;;;;;;;8.16;66.66;100479.20;122243;1152;22538;-76
2021/03/27 03:11:03;;;;;;;74.83;62.08;;;;;;;8.15;66.76;100480.19;122284;1152;22547;-74
2021/03/27 03:14:09;;;;;;;76.55;64.60;;;;;;;8.12;66.46;100485.74;122235;1152;22845;-75
2021/03/27 03:16:46;;;;;;;74.73;62.20;;;;;;;8.08;66.33;100482.58;122241;1152;24439;-74
2021/03/27 03:19:24;;;;;;;71.60;61.98;;;;;;;8.02;66.29;100484.00;122268;1151;22536;-75
2021/03/27 03:22:26;;;;;;;77.20;62.78;;;;;;;8.05;66.70;100487.31;122189;1152;22589;-75
2021/03/27 03:25:16;;;;;;;75.90;61.03;;;;;;;8.04;66.31;100477.78;122085;1152;23042;-76
2021/03/27 03:28:07;;;;;;;74.50;61.10;;;;;;;8.02;66.18;100477.91;121700;1156;22613;-76
2021/03/27 03:31:23;;;;;;;75.90;60.78;;;;;;;7.99;66.21;100470.31;122020;1155;22552;-77
2021/03/27 03:34:22;;;;;;;80.10;62.78;;;;;;;7.97;66.25;100462.58;122081;1155;22563;-76
2021/03/27 03:37:04;;;;;;;76.73;63.25;;;;;;;7.94;66.08;100460.25;121922;1155;22549;-75
2021/03/27 03:40:13;;;;;;;75.67;63.93;;;;;;;7.92;66.01;100463.98;122030;1155;24709;-76
2021/03/27 03:43:17;;;;;;;75.70;62.43;;;;;;;7.86;65.97;100459.31;121938;1155;24308;-76
2021/03/27 03:46:00;;;;;;;75.70;63.57;;;;;;;7.80;66.05;100460.75;121965;1155;22735;-75
2021/03/27 03:49:08;;;;;;;75.47;61.33;;;;;;;7.78;66.12;100460.06;121511;1158;24760;-77
2021/03/27 03:52:09;;;;;;;81.45;62.00;;;;;;;7.75;65.95;100455.09;121530;1155;22565;-75
2021/03/27 03:55:18;;;;;;;75.18;58.95;;;;;;;7.72;66.02;100450.95;121949;1155;22771;-75
2021/03/27 03:58:12;;;;;;;72.47;61.10;;;;;;;7.71;66.29;100446.67;121962;1155;24187;-77
2021/03/27 04:00:56;;;;;;;76.38;59.03;;;;;;;7.72;66.13;100442.23;121892;1158;22559;-77
2021/03/27 04:03:41;;;;;;;70.95;58.50;;;;;;;7.72;65.74;100444.86;121645;1155;25276;-76
2021/03/27 04:06:33;;;;;;;69.98;57.38;;;;;;;7.72;65.88;100450.13;122060;1152;22534;-75
2021/03/27 04:09:32;;;;;;;71.28;57.15;;;;;;;7.69;65.90;100443.34;122230;1154;22553;-76
2021/03/27 04:12:24;;;;;;;76.15;57.73;;;;;;;7.65;65.81;100446.43;122155;1152;22551;-75
2021/03/27 04:15:09;;;;;;;;;;;;;;;7.60;65.98;100438.14;122277;1156;22736;-76
2021/03/27 04:18:05;;;;;;;72.95;53.00;;;;;;;7.54;65.87;100440.39;122290;1152;21342;-76
2021/03/27 04:21:24;;;;;;;73.68;54.38;;;;;;;7.58;65.88;100440.10;122209;1152;22547;-76
2021/03/27 04:24:05;;;;;;;73.33;53.30;;;;;;;7.53;65.86;100430.86;121954;1155;22548;-76
2021/03/27 04:26:35;;;;;;;68.98;54.58;;;;;;;7.55;66.04;100428.08;121683;1155;22545;-76
2021/03/27 04:29:31;;;;;;;66.78;54.55;;;;;;;7.57;65.92;100433.20;122011;1155;22582;-76
2021/03/27 04:32:32;;;;;;;67.03;53.28;;;;;;;7.57;65.44;100430.57;121996;1155;22548;-76
2021/03/27 04:35:34;;;;;;;68.10;53.05;;;;;;;7.53;65.70;100435.27;121643;1155;22712;-76
2021/03/27 04:38:24;;;;;;;62.70;51.53;;;;;;;7.48;65.65;100433.08;121970;1158;22542;-77
2021/03/27 04:41:27;;;;;;;65.45;50.83;;;;;;;7.49;65.71;100439.16;121528;1157;22559;-74
2021/03/27 04:44:21;;;;;;;62.23;50.68;;;;;;;7.49;65.64;100439.98;121022;1162;22574;-76
2021/03/27 04:47:08;;;;;;;65.50;50.85;;;;;;;7.50;65.57;100440.84;120906;1161;23081;-76
2021/03/27 04:49:53;;;;;;;62.80;49.03;;;;;;;7.55;65.66;100438.59;120863;1161;22578;-75
2021/03/27 04:52:21;;;;;;;62.90;48.60;;;;;;;7.57;65.37;100430.57;120880;1164;22636;-76
2021/03/27 04:55:35;;;;;;;62.80;49.53;;;;;;;7.61;65.25;100431.92;120813;1164;22639;-75
2021/03/27 04:58:42;;;;;;;58.50;45.90;;;;;;;7.59;65.34;100425.98;120820;1164;22630;-76
2021/03/27 05:02:06;;;;;;;65.30;48.40;;;;;;;7.59;64.99;100433.86;120978;1159;22572;-76
2021/03/27 05:05:13;;;;;;;64.45;46.65;;;;;;;7.58;64.99;100426.96;121192;1159;22649;-75
2021/03/27 05:08:18;;;;;;;65.83;49.58;;;;;;;7.63;64.91;100429.96;121495;1158;22603;-76
2021/03/27 05:11:24;;;;;;;62.68;46.90;;;;;;;7.68;64.88;100431.19;121179;1159;23506;-75
2021/03/27 05:14:35;;;;;;;62.40;46.05;;;;;;;7.74;64.78;100427.97;121115;1159;22600;-76
2021/03/27 05:17:44;;;;;;;58.68;46.83;;;;;;;7.82;64.81;100421.97;121621;1155;22616;-76
2021/03/27 05:20:25;;;;;;;59.58;46.73;;;;;;;7.87;64.30;100422.36;121434;1158;22629;-75
2021/03/27 05:23:09;;;;;;;59.70;46.83;;;;;;;7.92;63.67;100430.62;121564;1158;22710;-75
2021/03/27 05:26:13;;;;;;;54.73;44.37;;;;;;;7.94;63.74;100420.79;121644;1155;22556;-75
2021/03/27 05:29:03;;;;;;;60.20;44.93;;;;;;;7.98;63.58;100427.39;121967;1157;22551;-75
2021/03/27 05:31:39;;;;;;;52.60;41.15;;;;;;;8.02;63.21;100423.48;121983;1157;22553;-75
2021/03/27 05:34:26;;;;;;;52.50;42.63;;;;;;;8.07;63.05;100417.80;121555;1158;25205;-74
2021/03/27 05:37:25;;;;;;;57.13;40.13;;;;;;;8.11;62.88;100402.53;121709;1155;22607;-75
2021/03/27 05:40:39;;;;;;;53.35;41.60;;;;;;;8.16;62.78;100410.78;121192;1160;22618;-74
2021/03/27 05:43:52;;;;;;;49.55;40.63;;;;;;;8.24;62.52;100410.88;121226;1158;22572;-75
2021/03/27 05:47:10;;;;;;;54.18;41.30;;;;;;;8.34;62.34;100410.80;121436;1158;24534;-75
2021/03/27 05:50:13;;;;;;;53.50;40.28;;;;;;;8.40;62.00;100410.23;121448;1158;22565;-76
2021/03/27 05:53:37;;;;;;;55.28;40.48;;;;;;;8.48;61.75;100408.47;121161;1158;24119;-75
2021/03/27 05:56:42;;;;;;;57.78;39.98;;;;;;;8.57;61.42;100403.28;121663;1155;22634;-75
2021/03/27 05:59:51;;;;;;;56.40;42.28;;;;;;;8.65;61.07;100398.06;121997;1155;22635;-76
2021/03/27 06:02:40;;;;;;;52.38;40.40;;;;;;;8.73;60.84;100408.66;121692;1155;22596;-77
2021/03/27 06:05:47;;;;;;;56.65;43.95;;;;;;;8.84;60.53;100397.04;121553;1155;22564;-76
2021/03/27 06:08:39;;;;;;;61.80;42.08;;;;;;;8.92;60.16;100397.08;121683;1155;22640;-75
2021/03/27 06:11:46;;;;;;;53.63;41.78;;;;;;;9.02;60.07;100395.16;121571;1158;22725;-75
2021/03/27 06:14:29;;;;;;;53.13;40.53;;;;;;;9.18;59.79;100389.14;121440;1159;22570;-75
2021/03/27 06:17:16;;;;;;;58.40;43.70;;;;;;;9.36;59.47;100387.27;121301;1155;22611;-75
2021/03/27 06:20:11;;;;;;;55.33;41.48;;;;;;;9.53;59.03;100387.29;121962;1155;22561;-75
2021/03/27 06:23:17;;;;;;;63.33;46.70;;;;;;;9.72;58.55;100383.56;121679;1155;22645;-75
2021/03/27 06:26:31;;;;;;;61.47;42.00;;;;;;;9.89;58.25;100378.14;122040;1155;24439;-76
2021/03/27 06:29:42;;;;;;;57.05;42.65;;;;;;;10.15;57.81;100379.83;121662;1157;24534;-75
2021/03/27 06:32:35;;;;;;;58.48;43.30;;;;;;;10.47;57.82;100379.05;121820;1152;22576;-75
2021/03/27 06:35:47;;;;;;;55.13;41.45;;;;;;;10.85;57.11;100379.31;122341;1152;22540;-75
2021/03/27 06:38:52;;;;;;;60.00;44.85;;;;;;;11.22;56.28;100376.05;122109;1152;22655;-73
2021/03/27 06:41:57;;;;;;;57.33;41.83;;;;;;;11.64;55.95;100372.23;122466;1152;22517;-78
2021/03/27 06:45:05;;;;;;;68.45;45.48;;;;;;;12.04;54.21;100378.30;122435;1152;22537;-77
2021/03/27 06:48:23;;;;;;;60.28;41.15;;;;;;;12.43;53.73;100372.85;122186;1152;22540;-82
2021/03/27 06:51:51;;;;;;;53.25;40.60;;;;;;;12.75;52.54;100360.28;122257;1152;22763;-78
2021/03/27 06:54:52;;;;;;;50.38;40.18;;;;;;;13.10;51.03;100366.70;121693;1155;24703;-78
2021/03/27 06:57:45;;;;;;;62.75;44.25;;;;;;;13.34;50.62;100364.78;121623;1155;24699;-76
2021/03/27 07:01:03;;;;;;;60.05;45.50;;;;;;;13.56;49.99;100370.95;121625;1155;22567;-74
2021/03/27 07:04:05;;;;;;;69.65;50.08;;;;;;;13.91;49.19;100373.79;121487;1158;22571;-73
2021/03/27 07:07:04;;;;;;;65.10;50.97;;;;;;;14.16;47.99;100366.25;121123;1160;22582;-73
2021/03/27 07:10:08;;;;;;;63.73;45.53;;;;;;;14.49;48.03;100367.34;121094;1161;22612;-72
2021/03/27 07:13:16;;;;;;;450.08;283.23;;;;;;;14.80;47.18;100371.50;121070;1159;22740;-73
2021/03/27 07:16:08;;;;;;;249.75;140.85;;;;;;;15.04;46.10;100378.19;120924;1162;25276;-74
2021/03/27 07:19:15;;;;;;;99.20;64.20;;;;;;;15.22;46.02;100374.99;120881;1164;23354;-74
2021/03/27 07:22:20;;;;;;;90.85;56.05;;;;;;;15.38;44.87;100374.66;120634;1164;22839;-73
2021/03/27 07:25:32;;;;;;;64.93;47.80;;;;;;;15.69;44.98;100366.22;120883;1163;23102;-74
2021/03/27 07:28:44;;;;;;;66.80;46.40;;;;;;;15.94;44.03;100355.80;120690;1164;22675;-78
2021/03/27 07:32:09;;;;;;;58.00;43.30;;;;;;;16.33;43.63;100361.38;120902;1164;24940;-78
2021/03/27 07:35:17;;;;;;;52.70;36.95;;;;;;;16.46;42.70;100361.35;120642;1166;22671;-78
2021/03/27 07:38:18;;;;;;;56.03;38.47;;;;;;;16.71;42.02;100358.88;120397;1171;22673;-78
2021/03/27 07:41:38;;;;;;;55.63;38.37;;;;;;;16.73;41.66;100355.98;120534;1168;24731;-79
2021/03/27 07:44:33;;;;;;;41.70;34.25;;;;;;;16.64;41.12;100360.73;120387;1171;22769;-78
2021/03/27 07:48:01;;;;;;;46.90;35.15;;;;;;;16.46;40.92;100361.35;120275;1171;24854;-78
2021/03/27 07:50:58;;;;;;;43.85;32.25;;;;;;;16.77;41.50;100370.61;120271;1171;22603;-78
2021/03/27 07:53:53;;;;;;;50.00;36.10;;;;;;;16.97;40.75;100360.71;120262;1174;22644;-78
2021/03/27 07:57:01;;;;;;;46.70;38.30;;;;;;;17.00;40.49;100362.14;120301;1172;22673;-80
2021/03/27 07:59:48;;;;;;;43.00;34.20;;;;;;;16.95;40.49;100365.42;120468;1171;23048;-77
2021/03/27 08:03:04;;;;;;;48.60;36.70;;;;;;;16.80;40.44;100362.19;120481;1169;22648;-77
2021/03/27 08:06:22;;;;;;;44.33;35.93;;;;;;;16.82;40.20;100358.27;120788;1164;23172;-78
2021/03/27 08:09:24;;;;;;;47.55;35.65;;;;;;;17.00;40.56;100359.48;120822;1164;22635;-79
2021/03/27 08:12:17;;;;;;;;;;;;;;;16.97;39.22;100349.22;120966;1162;22573;-78
2021/03/27 08:15:20;;;;;;;42.73;33.33;;;;;;;17.16;40.68;100351.83;121380;1158;21357;-78
2021/03/27 08:18:10;;;;;;;47.88;35.08;;;;;;;17.26;39.23;100343.38;121568;1158;22861;-78
2021/03/27 08:21:21;;;;;;;46.73;34.17;;;;;;;17.44;39.79;100347.19;121630;1156;22587;-77
2021/03/27 08:24:11;;;;;;;39.55;32.73;;;;;;;17.53;39.33;100337.91;121595;1157;22570;-78
2021/03/27 08:26:44;;;;;;;46.08;35.90;;;;;;;17.40;39.12;100357.48;121663;1155;22787;-79
2021/03/27 08:29:43;;;;;;;42.25;34.65;;;;;;;17.31;39.49;100340.88;121664;1155;22560;-78
2021/03/27 08:32:35;;;;;;;43.50;33.93;;;;;;;17.34;39.41;100326.28;121957;1158;22574;-78
2021/03/27 08:35:06;;;;;;;44.90;34.15;;;;;;;17.37;39.16;100331.20;121643;1155;22557;-78
2021/03/27 08:38:24;;;;;;;40.20;32.95;;;;;;;17.31;38.83;100324.84;122009;1155;22570;-78
2021/03/27 08:41:19;;;;;;;41.45;32.63;;;;;;;17.27;39.41;100318.30;121653;1155;22576;-77
2021/03/27 08:44:21;;;;;;;51.98;34.05;;;;;;;17.59;39.33;100312.98;122211;1154;22554;-78
2021/03/27 08:47:20;;;;;;;42.98;34.05;;;;;;;17.77;38.64;100313.13;122256;1152;22551;-78
2021/03/27 08:50:16;;;;;;;45.20;32.73;;;;;;;17.83;38.78;100306.92;122192;1152;24453;-78
2021/03/27 08:53:30;;;;;;;41.08;32.15;;;;;;;17.91;38.38;100321.86;122423;1154;22552;-78
2021/03/27 08:56:55;;;;;;;37.43;30.98;;;;;;;18.34;38.29;100324.60;122229;1152;22551;-78
2021/03/27 08:59:41;;;;;;;42.43;31.70;;;;;;;18.91;37.75;100320.98;122456;1152;22615;-78
2021/03/27 09:02:26;;;;;;;43.93;30.53;;;;;;;19.28;36.49;100335.98;122459;1153;22536;-78
2021/03/27 09:05:12;;;;;;;37.25;31.05;;;;;;;19.55;36.21;100340.17;121993;1155;22567;-78
2021/03/27 09:08:31;;;;;;;34.60;30.20;;;;;;;19.82;36.02;100343.33;121992;1154;22700;-78
2021/03/27 09:11:27;;;;;;;38.67;31.87;;;;;;;19.57;35.40;100335.42;121484;1158;22549;-78
2021/03/27 09:14:14;;;;;;;34.25;29.73;;;;;;;19.74;35.58;100339.12;121163;1158;23568;-78
2021/03/27 09:17:30;;;;;;;44.63;33.10;;;;;;;20.09;35.24;100331.17;121466;1158;23089;-78
2021/03/27 09:20:20;;;;;;;52.13;31.47;;;;;;;20.85;35.35;100324.05;120897;1164;22607;-77
2021/03/27 09:23:00;;;;;;;63.63;30.20;;;;;;;21.44;34.64;100334.69;120841;1162;22617;-78
2021/03/27 09:26:02;;;;;;;38.00;28.50;;;;;;;21.53;33.18;100329.75;120796;1164;22678;-79
2021/03/27 09:29:02;;;;;;;35.70;29.03;;;;;;;21.65;34.11;100327.80;120826;1164;22703;-77
2021/03/27 09:31:52;;;;;;;37.00;29.93;;;;;;;21.78;32.99;100321.31;120782;1164;23118;-77
2021/03/27 09:34:23;;;;;;;31.03;27.00;;;;;;;21.23;33.14;100324.58;120760;1164;22600;-77
2021/03/27 09:37:14;;;;;;;40.20;28.55;;;;;;;20.82;33.46;100327.21;120846;1164;22609;-77
2021/03/27 09:39:53;;;;;;;48.95;31.15;;;;;;;20.51;34.29;100323.05;120860;1164;23522;-77
2021/03/27 09:43:16;;;;;;;38.58;31.75;;;;;;;20.48;34.59;100323.48;120990;1161;22586;-76
2021/03/27 09:46:27;;;;;;;36.55;29.23;;;;;;;20.32;34.44;100321.49;120990;1160;22579;-78
2021/03/27 09:49:36;;;;;;;62.33;43.18;;;;;;;19.94;34.66;100315.50;121388;1158;23070;-78
2021/03/27 09:52:37;;;;;;;44.85;33.03;;;;;;;19.94;35.33;100317.38;121469;1159;22675;-80
2021/03/27 09:55:13;;;;;;;46.65;33.93;;;;;;;19.83;35.08;100310.95;121475;1155;23533;-77
2021/03/27 09:58:10;;;;;;;45.83;34.30;;;;;;;19.75;35.23;100316.62;122116;1152;22553;-77
2021/03/27 10:00:47;;;;;;;45.53;29.75;;;;;;;19.73;35.42;100326.77;122327;1154;23939;-78
2021/03/27 10:03:59;;;;;;;39.90;27.58;;;;;;;19.62;35.14;100338.22;122235;1152;22540;-77
2021/03/27 10:06:49;;;;;;;29.75;24.20;;;;;;;19.67;35.34;100341.89;122114;1152;25510;-77
2021/03/27 10:09:36;;;;;;;39.68;26.45;;;;;;;20.33;35.13;100336.56;122385;1155;23636;-79
2021/03/27 10:12:18;;;;;;;30.25;23.13;;;;;;;21.12;34.65;100328.91;122105;1154;22549;-79
2021/03/27 10:15:20;;;;;;;34.93;25.15;;;;;;;21.63;33.07;100338.00;122153;1152;22552;-78
2021/03/27 10:17:57;;;;;;;;;;;;;;;21.48;32.01;100337.70;122161;1155;22549;-78
2021/03/27 10:20:53;;;;;;;33.33;23.53;;;;;;;21.15;32.63;100337.30;122126;1152;21354;-78
2021/03/27 10:23:30;;;;;;;33.30;23.80;;;;;;;20.50;33.24;100342.86;122122;1154;22545;-77
2021/03/27 10:26:31;;;;;;;31.00;23.63;;;;;;;20.31;33.86;100349.38;122488;1152;22547;-77
2021/03/27 10:29:10;;;;;;;41.18;23.90;;;;;;;19.96;33.94;100355.51;122105;1152;22636;-79
2021/03/27 10:31:44;;;;;;;35.23;22.55;;;;;;;19.60;33.70;100362.58;122182;1154;22531;-77
2021/03/27 10:34:39;;;;;;;27.68;19.23;;;;;;;19.35;33.73;100360.00;122175;1152;22547;-78
2021/03/27 10:37:54;;;;;;;28.03;20.48;;;;;;;18.95;33.84;100355.11;122167;1152;22541;-78
2021/03/27 10:40:53;;;;;;;52.40;26.68;;;;;;;18.68;35.03;100349.19;121598;1155;24454;-78
2021/03/27 10:44:23;;;;;;;39.63;22.43;;;;;;;18.50;34.39;100349.17;122088;1155;24380;-77
2021/03/27 10:47:15;;;;;;;26.88;19.73;;;;;;;18.64;35.85;100355.20;121480;1159;22564;-78
2021/03/27 10:50:04;;;;;;;28.83;22.65;;;;;;;19.34;34.90;100362.91;121235;1159;22566;-78
2021/03/27 10:53:41;;;;;;;46.13;27.70;;;;;;;19.80;34.15;100358.84;121465;1158;23346;-78
2021/03/27 10:56:57;;;;;;;26.37;19.93;;;;;;;19.73;34.18;100364.30;121277;1159;22566;-76
2021/03/27 10:59:47;;;;;;;25.95;19.25;;;;;;;19.79;34.69;100359.86;121153;1161;22659;-77
2021/03/27 11:02:52;;;;;;;30.60;21.03;;;;;;;20.07;34.14;100365.44;121157;1162;24745;-77
2021/03/27 11:06:04;;;;;;;23.30;20.05;;;;;;;20.16;33.73;100366.74;120966;1162;23594;-76
2021/03/27 11:09:33;;;;;;;27.47;20.60;;;;;;;20.02;33.26;100362.61;121106;1159;22855;-78
2021/03/27 11:12:53;;;;;;;29.43;22.45;;;;;;;19.87;33.78;100370.28;121152;1160;22567;-77
2021/03/27 11:16:10;;;;;;;40.53;21.30;;;;;;;19.85;33.68;100362.45;121150;1160;22951;-78
2021/03/27 11:19:11;;;;;;;34.50;21.60;;;;;;;19.75;33.98;100371.03;121189;1161;22578;-77
2021/03/27 11:22:06;;;;;;;31.77;20.47;;;;;;;19.60;34.25;100373.30;121183;1161;22634;-79
2021/03/27 11:24:59;;;;;;;46.00;22.18;;;;;;;19.52;34.51;100381.63;121408;1158;22568;-78
2021/03/27 11:28:07;;;;;;;34.47;20.17;;;;;;;19.32;34.25;100375.70;121492;1159;22556;-79
2021/03/27 11:31:16;;;;;;;37.23;21.43;;;;;;;19.03;34.23;100384.27;121474;1159;22574;-78
2021/03/27 11:34:27;;;;;;;39.05;21.20;;;;;;;18.78;34.76;100388.85;121484;1159;22557;-79
2021/03/27 11:37:58;;;;;;;30.48;18.55;;;;;;;18.60;34.94;100386.13;121246;1158;22573;-77
2021/03/27 11:40:33;;;;;;;37.05;21.18;;;;;;;18.48;35.33;100384.14;121387;1157;22573;-76
2021/03/27 11:43:46;;;;;;;30.05;21.05;;;;;;;18.38;35.66;100378.47;121304;1157;22551;-77
2021/03/27 11:46:29;;;;;;;27.93;20.98;;;;;;;18.27;36.12;100377.33;120974;1164;22620;-77
2021/03/27 11:49:38;;;;;;;30.50;21.60;;;;;;;18.24;36.22;100376.95;121005;1162;22607;-77
2021/03/27 11:52:28;;;;;;;27.20;20.83;;;;;;;18.23;36.30;100372.64;120909;1164;22609;-78
2021/03/27 11:55:27;;;;;;;27.05;19.75;;;;;;;18.18;36.44;100383.97;120912;1164;24752;-77
2021/03/27 11:58:23;;;;;;;35.60;24.30;;;;;;;18.07;36.18;100380.14;120952;1163;24757;-77
2021/03/27 12:01:03;;;;;;;25.50;19.68;;;;;;;18.02;36.47;100379.95;120935;1161;24748;-78
2021/03/27 12:03:52;;;;;;;32.30;25.10;;;;;;;18.05;36.88;100384.06;121231;1161;24757;-78
2021/03/27 12:06:29;;;;;;;31.38;24.18;;;;;;;18.04;36.93;100390.45;121170;1161;23355;-78
2021/03/27 12:09:34;;;;;;;31.20;23.53;;;;;;;17.99;37.17;100406.30;121140;1161;22565;-79
2021/03/27 12:12:29;;;;;;;32.43;21.58;;;;;;;17.82;37.69;100417.48;121200;1158;22553;-77
2021/03/27 12:15:24;;;;;;;325.45;45.93;;;;;;;17.61;37.92;100471.20;121275;1158;22550;-78
2021/03/27 12:17:59;;;;;;;56.28;15.75;;;;;;;17.01;39.59;100486.53;121207;1158;24709;-78
2021/03/27 12:21:05;;;;;;;41.33;14.35;;;;;;;16.48;41.80;100492.63;121276;1158;22565;-76
2021/03/27 12:23:59;;;;;;;30.78;12.25;;;;;;;15.90;43.25;100503.77;121467;1155;24716;-77
2021/03/27 12:26:55;;;;;;;16.55;11.85;;;;;;;15.34;44.71;100517.16;121592;1155;22550;-78
2021/03/27 12:30:01;;;;;;;17.33;11.53;;;;;;;14.80;46.17;100518.59;121917;1155;22557;-78
2021/03/27 12:32:47;;;;;;;15.55;13.58;;;;;;;14.35;47.80;100530.37;121722;1155;22603;-79
2021/03/27 12:35:38;;;;;;;24.28;15.45;;;;;;;14.08;48.95;100553.16;121707;1155;22397;-77
2021/03/27 12:38:06;;;;;;;15.88;14.18;;;;;;;13.74;49.84;100551.91;121785;1155;23316;-77
2021/03/27 12:40:40;;;;;;;20.45;16.25;;;;;;;13.54;51.06;100548.97;121731;1155;22649;-76
2021/03/27 12:43:15;;;;;;;23.35;19.68;;;;;;;13.32;51.95;100555.16;121662;1155;25381;-77
2021/03/27 12:46:21;;;;;;;23.65;21.15;;;;;;;13.11;53.17;100567.25;121608;1155;22552;-78
2021/03/27 12:49:07;;;;;;;22.58;18.70;;;;;;;12.89;54.57;100578.70;121620;1155;22646;-77
2021/03/27 12:51:53;;;;;;;28.80;20.75;;;;;;;12.88;55.57;100582.36;121747;1155;22559;-78
2021/03/27 12:55:13;;;;;;;22.50;18.50;;;;;;;12.87;56.39;100578.07;121252;1155;22573;-78
2021/03/27 12:58:02;;;;;;;20.95;17.28;;;;;;;12.82;57.13;100583.06;121302;1158;22584;-78
2021/03/27 13:00:39;;;;;;;24.13;18.97;;;;;;;12.79;57.45;100581.58;121574;1159;22616;-77
2021/03/27 13:04:11;;;;;;;21.80;19.55;;;;;;;12.70;57.75;100585.31;121502;1158;24728;-77
2021/03/27 13:07:13;;;;;;;20.10;15.40;;;;;;;12.54;58.55;100591.53;121489;1158;22823;-78
2021/03/27 13:10:07;;;;;;;17.23;15.43;;;;;;;12.47;58.84;100594.05;121536;1158;25227;-80
2021/03/27 13:13:12;;;;;;;16.55;13.10;;;;;;;12.43;59.42;100599.88;121869;1155;22578;-82
2021/03/27 13:16:17;;;;;;;15.58;12.30;;;;;;;12.33;59.08;100605.39;121917;1152;22906;-79
2021/03/27 13:19:10;;;;;;;15.58;13.25;;;;;;;12.25;59.53;100616.83;122558;1152;24777;-78
2021/03/27 13:22:18;;;;;;;17.88;14.30;;;;;;;12.21;59.75;100628.77;122289;1152;22639;-79